sensor_id;sensor_type;location;lat;lon;timestamp;P1;durP1;ratioP1;P2;durP2;ratioP2
32641;SDS011;19323;56.072;9.698;2022-09-09T00:03:54;2.17;;;0.38;;
32641;SDS011;19323;56.072;9.698;2022-09-09T00:06:33;1.75;;;0.30;;
32641;SDS011;19323;56.072;9.698;2022-09-09T00:09:16;1.20;;;0.40;;
32641;SDS011;19323;56.072;9.698;2022-09-09T00:11:48;0.40;;;0.30;;
32641;SDS011;19323;56.072;9.698;2022-09-09T00:17:04;0.60;;;0.40;;
32641;SDS011;19323;56.072;9.698;2022-09-09T00:19:45;0.82;;;0.30;;
32641;SDS011;19323;56.072;9.698;2022-09-09T00:22:17;0.93;;;0.50;;
32641;SDS011;19323;56.072;9.698;2022-09-09T00:24:53;1.77;;;0.30;;
32641;SDS011;19323;56.072;9.698;2022-09-09T00:27:34;0.93;;;0.30;;
32641;SDS011;19323;56.072;9.698;2022-09-09T00:32:40;1.40;;;0.40;;
32641;SDS011;19323;56.072;9.698;2022-09-09T00:37:35;1.10;;;0.52;;
32641;SDS011;19323;56.072;9.698;2022-09-09T00:40:08;0.30;;;0.20;;
32641;SDS011;19323;56.072;9.698;2022-09-09T00:42:48;1.10;;;0.30;;
32641;SDS011;19323;56.072;9.698;2022-09-09T00:48:50;0.93;;;0.20;;
32641;SDS011;19323;56.072;9.698;2022-09-09T00:51:27;1.13;;;0.40;;
32641;SDS011;19323;56.072;9.698;2022-09-09T01:02:26;0.73;;;0.50;;
32641;SDS011;19323;56.072;9.698;2022-09-09T01:05:07;1.17;;;0.60;;
32641;SDS011;19323;56.072;9.698;2022-09-09T01:07:40;2.13;;;0.98;;
32641;SDS011;19323;56.072;9.698;2022-09-09T01:10:21;1.47;;;0.70;;
32641;SDS011;19323;56.072;9.698;2022-09-09T01:13:00;0.85;;;0.45;;
32641;SDS011;19323;56.072;9.698;2022-09-09T01:15:31;1.20;;;0.40;;
32641;SDS011;19323;56.072;9.698;2022-09-09T01:18:02;1.02;;;0.40;;
32641;SDS011;19323;56.072;9.698;2022-09-09T01:23:21;1.85;;;0.65;;
32641;SDS011;19323;56.072;9.698;2022-09-09T01:26:08;0.85;;;0.40;;
32641;SDS011;19323;56.072;9.698;2022-09-09T01:28:45;0.95;;;0.50;;
32641;SDS011;19323;56.072;9.698;2022-09-09T01:31:19;3.73;;;0.83;;
32641;SDS011;19323;56.072;9.698;2022-09-09T01:36:26;0.93;;;0.40;;
32641;SDS011;19323;56.072;9.698;2022-09-09T01:41:26;1.50;;;1.08;;
32641;SDS011;19323;56.072;9.698;2022-09-09T01:43:53;3.53;;;0.60;;
32641;SDS011;19323;56.072;9.698;2022-09-09T01:46:21;1.95;;;0.40;;
32641;SDS011;19323;56.072;9.698;2022-09-09T01:48:52;0.45;;;0.40;;
32641;SDS011;19323;56.072;9.698;2022-09-09T01:51:20;1.38;;;0.70;;
32641;SDS011;19323;56.072;9.698;2022-09-09T01:53:47;0.73;;;0.60;;
32641;SDS011;19323;56.072;9.698;2022-09-09T02:07:46;0.70;;;0.50;;
32641;SDS011;19323;56.072;9.698;2022-09-09T02:12:49;0.93;;;0.32;;
32641;SDS011;19323;56.072;9.698;2022-09-09T02:15:42;1.00;;;0.60;;
32641;SDS011;19323;56.072;9.698;2022-09-09T02:18:15;0.98;;;0.60;;
32641;SDS011;19323;56.072;9.698;2022-09-09T02:20:51;1.10;;;0.70;;
32641;SDS011;19323;56.072;9.698;2022-09-09T02:23:19;0.85;;;0.47;;
32641;SDS011;19323;56.072;9.698;2022-09-09T02:25:47;6.53;;;0.50;;
32641;SDS011;19323;56.072;9.698;2022-09-09T02:28:15;1.38;;;0.55;;
32641;SDS011;19323;56.072;9.698;2022-09-09T02:30:43;0.70;;;0.47;;
32641;SDS011;19323;56.072;9.698;2022-09-09T02:33:13;2.97;;;0.90;;
32641;SDS011;19323;56.072;9.698;2022-09-09T02:35:40;6.57;;;1.27;;
32641;SDS011;19323;56.072;9.698;2022-09-09T02:38:10;0.75;;;0.30;;
32641;SDS011;19323;56.072;9.698;2022-09-09T02:40:39;1.52;;;0.63;;
32641;SDS011;19323;56.072;9.698;2022-09-09T02:43:06;0.70;;;0.40;;
32641;SDS011;19323;56.072;9.698;2022-09-09T02:45:41;0.90;;;0.52;;
32641;SDS011;19323;56.072;9.698;2022-09-09T02:48:20;0.55;;;0.43;;
32641;SDS011;19323;56.072;9.698;2022-09-09T02:51:02;0.80;;;0.50;;
32641;SDS011;19323;56.072;9.698;2022-09-09T02:53:41;1.88;;;0.47;;
32641;SDS011;19323;56.072;9.698;2022-09-09T02:56:17;0.63;;;0.50;;
32641;SDS011;19323;56.072;9.698;2022-09-09T02:58:47;1.02;;;0.75;;
32641;SDS011;19323;56.072;9.698;2022-09-09T03:01:17;1.15;;;0.50;;
32641;SDS011;19323;56.072;9.698;2022-09-09T03:03:44;1.10;;;0.50;;
32641;SDS011;19323;56.072;9.698;2022-09-09T03:06:12;1.38;;;0.75;;
32641;SDS011;19323;56.072;9.698;2022-09-09T03:08:38;1.90;;;0.98;;
32641;SDS011;19323;56.072;9.698;2022-09-09T03:11:05;0.90;;;0.50;;
32641;SDS011;19323;56.072;9.698;2022-09-09T03:13:33;0.82;;;0.30;;
32641;SDS011;19323;56.072;9.698;2022-09-09T03:15:59;1.38;;;0.63;;
32641;SDS011;19323;56.072;9.698;2022-09-09T03:18:26;1.35;;;0.40;;
32641;SDS011;19323;56.072;9.698;2022-09-09T03:20:54;2.80;;;0.50;;
32641;SDS011;19323;56.072;9.698;2022-09-09T03:23:20;1.70;;;0.82;;
32641;SDS011;19323;56.072;9.698;2022-09-09T03:25:48;3.67;;;1.35;;
32641;SDS011;19323;56.072;9.698;2022-09-09T03:28:15;1.67;;;0.65;;
32641;SDS011;19323;56.072;9.698;2022-09-09T03:30:42;1.02;;;0.50;;
32641;SDS011;19323;56.072;9.698;2022-09-09T03:33:08;1.13;;;0.50;;
32641;SDS011;19323;56.072;9.698;2022-09-09T03:35:35;3.28;;;0.50;;
32641;SDS011;19323;56.072;9.698;2022-09-09T03:38:02;0.85;;;0.40;;
32641;SDS011;19323;56.072;9.698;2022-09-09T03:40:28;1.45;;;0.50;;
32641;SDS011;19323;56.072;9.698;2022-09-09T03:42:55;2.00;;;0.82;;
32641;SDS011;19323;56.072;9.698;2022-09-09T03:45:21;0.93;;;0.77;;
32641;SDS011;19323;56.072;9.698;2022-09-09T03:47:47;1.05;;;0.68;;
32641;SDS011;19323;56.072;9.698;2022-09-09T03:50:15;0.88;;;0.40;;
32641;SDS011;19323;56.072;9.698;2022-09-09T03:52:42;0.80;;;0.40;;
32641;SDS011;19323;56.072;9.698;2022-09-09T03:55:08;0.98;;;0.60;;
32641;SDS011;19323;56.072;9.698;2022-09-09T03:57:35;1.48;;;0.70;;
32641;SDS011;19323;56.072;9.698;2022-09-09T04:00:06;0.90;;;0.50;;
32641;SDS011;19323;56.072;9.698;2022-09-09T04:02:34;1.65;;;0.60;;
32641;SDS011;19323;56.072;9.698;2022-09-09T04:05:00;3.15;;;0.82;;
32641;SDS011;19323;56.072;9.698;2022-09-09T04:07:27;0.77;;;0.40;;
32641;SDS011;19323;56.072;9.698;2022-09-09T04:09:54;2.03;;;0.60;;
32641;SDS011;19323;56.072;9.698;2022-09-09T04:12:20;1.90;;;0.75;;
32641;SDS011;19323;56.072;9.698;2022-09-09T04:14:48;1.20;;;0.60;;
32641;SDS011;19323;56.072;9.698;2022-09-09T04:17:15;1.40;;;0.50;;
32641;SDS011;19323;56.072;9.698;2022-09-09T04:19:41;1.35;;;0.63;;
32641;SDS011;19323;56.072;9.698;2022-09-09T04:22:08;1.55;;;0.63;;
32641;SDS011;19323;56.072;9.698;2022-09-09T04:24:35;2.53;;;1.48;;
32641;SDS011;19323;56.072;9.698;2022-09-09T04:27:02;4.88;;;1.00;;
32641;SDS011;19323;56.072;9.698;2022-09-09T04:29:28;1.80;;;0.55;;
32641;SDS011;19323;56.072;9.698;2022-09-09T04:31:54;4.90;;;0.90;;
32641;SDS011;19323;56.072;9.698;2022-09-09T04:34:21;3.33;;;1.10;;
32641;SDS011;19323;56.072;9.698;2022-09-09T04:36:47;0.95;;;0.50;;
32641;SDS011;19323;56.072;9.698;2022-09-09T04:39:14;1.02;;;0.50;;
32641;SDS011;19323;56.072;9.698;2022-09-09T04:41:40;2.38;;;0.88;;
32641;SDS011;19323;56.072;9.698;2022-09-09T04:44:07;1.85;;;0.73;;
32641;SDS011;19323;56.072;9.698;2022-09-09T04:46:33;1.38;;;0.75;;
32641;SDS011;19323;56.072;9.698;2022-09-09T04:49:02;3.60;;;0.80;;
32641;SDS011;19323;56.072;9.698;2022-09-09T04:51:29;1.42;;;0.80;;
32641;SDS011;19323;56.072;9.698;2022-09-09T04:53:57;3.17;;;1.33;;
32641;SDS011;19323;56.072;9.698;2022-09-09T04:56:23;2.25;;;1.17;;
32641;SDS011;19323;56.072;9.698;2022-09-09T04:58:52;1.30;;;0.63;;
32641;SDS011;19323;56.072;9.698;2022-09-09T05:01:20;3.22;;;1.00;;
32641;SDS011;19323;56.072;9.698;2022-09-09T05:03:48;2.28;;;0.80;;
32641;SDS011;19323;56.072;9.698;2022-09-09T05:06:16;4.18;;;0.80;;
32641;SDS011;19323;56.072;9.698;2022-09-09T05:08:44;2.25;;;0.70;;
32641;SDS011;19323;56.072;9.698;2022-09-09T05:11:17;3.45;;;0.60;;
32641;SDS011;19323;56.072;9.698;2022-09-09T05:13:46;3.55;;;1.23;;
32641;SDS011;19323;56.072;9.698;2022-09-09T05:16:13;1.45;;;1.15;;
32641;SDS011;19323;56.072;9.698;2022-09-09T05:18:40;4.82;;;1.30;;
32641;SDS011;19323;56.072;9.698;2022-09-09T05:21:09;3.30;;;1.17;;
32641;SDS011;19323;56.072;9.698;2022-09-09T05:23:36;8.50;;;1.40;;
32641;SDS011;19323;56.072;9.698;2022-09-09T05:26:03;5.55;;;1.85;;
32641;SDS011;19323;56.072;9.698;2022-09-09T05:28:33;7.70;;;2.30;;
32641;SDS011;19323;56.072;9.698;2022-09-09T05:31:04;4.47;;;2.13;;
32641;SDS011;19323;56.072;9.698;2022-09-09T05:33:34;5.22;;;2.40;;
32641;SDS011;19323;56.072;9.698;2022-09-09T05:36:05;5.05;;;2.58;;
32641;SDS011;19323;56.072;9.698;2022-09-09T05:38:34;3.72;;;2.20;;
32641;SDS011;19323;56.072;9.698;2022-09-09T05:41:02;6.35;;;2.80;;
32641;SDS011;19323;56.072;9.698;2022-09-09T05:43:29;6.10;;;3.08;;
32641;SDS011;19323;56.072;9.698;2022-09-09T05:46:02;7.47;;;4.25;;
32641;SDS011;19323;56.072;9.698;2022-09-09T05:48:31;6.50;;;2.92;;
32641;SDS011;19323;56.072;9.698;2022-09-09T05:50:59;10.48;;;3.40;;
32641;SDS011;19323;56.072;9.698;2022-09-09T05:53:27;5.63;;;3.22;;
32641;SDS011;19323;56.072;9.698;2022-09-09T05:56:00;9.85;;;4.35;;
32641;SDS011;19323;56.072;9.698;2022-09-09T05:58:31;5.70;;;2.97;;
32641;SDS011;19323;56.072;9.698;2022-09-09T06:01:05;9.68;;;3.67;;
32641;SDS011;19323;56.072;9.698;2022-09-09T06:03:40;6.32;;;3.20;;
32641;SDS011;19323;56.072;9.698;2022-09-09T06:06:08;6.35;;;3.40;;
32641;SDS011;19323;56.072;9.698;2022-09-09T06:08:37;4.22;;;2.90;;
32641;SDS011;19323;56.072;9.698;2022-09-09T06:11:06;9.98;;;3.35;;
32641;SDS011;19323;56.072;9.698;2022-09-09T06:13:35;5.85;;;3.00;;
32641;SDS011;19323;56.072;9.698;2022-09-09T06:16:03;3.33;;;2.38;;
32641;SDS011;19323;56.072;9.698;2022-09-09T06:18:30;4.55;;;3.05;;
32641;SDS011;19323;56.072;9.698;2022-09-09T06:20:57;5.28;;;2.75;;
32641;SDS011;19323;56.072;9.698;2022-09-09T06:23:27;4.38;;;2.75;;
32641;SDS011;19323;56.072;9.698;2022-09-09T06:26:09;7.13;;;3.17;;
32641;SDS011;19323;56.072;9.698;2022-09-09T06:28:40;8.52;;;3.60;;
32641;SDS011;19323;56.072;9.698;2022-09-09T06:31:09;6.60;;;3.25;;
32641;SDS011;19323;56.072;9.698;2022-09-09T06:33:37;3.90;;;2.80;;
32641;SDS011;19323;56.072;9.698;2022-09-09T06:36:11;3.80;;;2.60;;
32641;SDS011;19323;56.072;9.698;2022-09-09T06:38:41;3.97;;;2.90;;
32641;SDS011;19323;56.072;9.698;2022-09-09T06:41:09;8.73;;;2.75;;
32641;SDS011;19323;56.072;9.698;2022-09-09T06:43:36;6.43;;;3.55;;
32641;SDS011;19323;56.072;9.698;2022-09-09T06:46:04;4.00;;;3.13;;
32641;SDS011;19323;56.072;9.698;2022-09-09T06:48:32;3.47;;;2.42;;
32641;SDS011;19323;56.072;9.698;2022-09-09T06:51:05;8.60;;;3.72;;
32641;SDS011;19323;56.072;9.698;2022-09-09T06:53:34;5.85;;;2.70;;
32641;SDS011;19323;56.072;9.698;2022-09-09T06:56:03;4.82;;;2.28;;
32641;SDS011;19323;56.072;9.698;2022-09-09T06:58:44;3.95;;;2.70;;
32641;SDS011;19323;56.072;9.698;2022-09-09T07:01:13;2.92;;;2.58;;
32641;SDS011;19323;56.072;9.698;2022-09-09T07:03:42;4.18;;;1.90;;
32641;SDS011;19323;56.072;9.698;2022-09-09T07:06:14;6.40;;;2.55;;
32641;SDS011;19323;56.072;9.698;2022-09-09T07:08:49;3.70;;;2.70;;
32641;SDS011;19323;56.072;9.698;2022-09-09T07:11:22;5.50;;;2.35;;
32641;SDS011;19323;56.072;9.698;2022-09-09T07:13:51;4.07;;;2.22;;
32641;SDS011;19323;56.072;9.698;2022-09-09T07:16:19;3.00;;;2.10;;
32641;SDS011;19323;56.072;9.698;2022-09-09T07:18:50;3.38;;;2.25;;
32641;SDS011;19323;56.072;9.698;2022-09-09T07:21:17;3.83;;;2.28;;
32641;SDS011;19323;56.072;9.698;2022-09-09T07:23:45;3.20;;;2.00;;
32641;SDS011;19323;56.072;9.698;2022-09-09T07:26:15;4.60;;;2.40;;
32641;SDS011;19323;56.072;9.698;2022-09-09T07:28:45;3.90;;;2.75;;
32641;SDS011;19323;56.072;9.698;2022-09-09T07:31:14;4.35;;;2.40;;
32641;SDS011;19323;56.072;9.698;2022-09-09T07:33:46;2.97;;;1.88;;
32641;SDS011;19323;56.072;9.698;2022-09-09T07:38:51;3.80;;;1.77;;
32641;SDS011;19323;56.072;9.698;2022-09-09T07:41:21;3.03;;;2.00;;
32641;SDS011;19323;56.072;9.698;2022-09-09T07:43:51;2.83;;;1.92;;
32641;SDS011;19323;56.072;9.698;2022-09-09T07:46:20;2.50;;;1.58;;
32641;SDS011;19323;56.072;9.698;2022-09-09T07:48:49;4.85;;;2.08;;
32641;SDS011;19323;56.072;9.698;2022-09-09T07:51:20;4.25;;;1.65;;
32641;SDS011;19323;56.072;9.698;2022-09-09T07:53:51;3.60;;;1.50;;
32641;SDS011;19323;56.072;9.698;2022-09-09T07:56:19;3.95;;;1.90;;
32641;SDS011;19323;56.072;9.698;2022-09-09T07:58:48;5.10;;;1.88;;
32641;SDS011;19323;56.072;9.698;2022-09-09T08:03:46;2.97;;;1.75;;
32641;SDS011;19323;56.072;9.698;2022-09-09T08:06:21;5.28;;;2.03;;
32641;SDS011;19323;56.072;9.698;2022-09-09T08:08:49;2.42;;;1.38;;
32641;SDS011;19323;56.072;9.698;2022-09-09T08:11:17;2.55;;;1.60;;
32641;SDS011;19323;56.072;9.698;2022-09-09T08:13:44;2.65;;;1.58;;
32641;SDS011;19323;56.072;9.698;2022-09-09T08:16:12;3.45;;;2.38;;
32641;SDS011;19323;56.072;9.698;2022-09-09T08:18:43;2.00;;;1.30;;
32641;SDS011;19323;56.072;9.698;2022-09-09T08:21:11;1.60;;;1.33;;
32641;SDS011;19323;56.072;9.698;2022-09-09T08:23:40;2.30;;;1.23;;
32641;SDS011;19323;56.072;9.698;2022-09-09T08:26:11;2.13;;;1.67;;
32641;SDS011;19323;56.072;9.698;2022-09-09T08:28:42;1.80;;;1.50;;
32641;SDS011;19323;56.072;9.698;2022-09-09T08:31:11;1.83;;;1.10;;
32641;SDS011;19323;56.072;9.698;2022-09-09T08:33:43;3.05;;;1.95;;
32641;SDS011;19323;56.072;9.698;2022-09-09T08:36:14;2.10;;;1.35;;
32641;SDS011;19323;56.072;9.698;2022-09-09T08:38:42;3.80;;;1.42;;
32641;SDS011;19323;56.072;9.698;2022-09-09T08:41:32;1.70;;;1.08;;
32641;SDS011;19323;56.072;9.698;2022-09-09T08:46:39;1.85;;;1.05;;
32641;SDS011;19323;56.072;9.698;2022-09-09T08:49:25;1.73;;;1.10;;
32641;SDS011;19323;56.072;9.698;2022-09-09T08:52:17;1.25;;;1.08;;
32641;SDS011;19323;56.072;9.698;2022-09-09T08:54:47;2.03;;;1.27;;
32641;SDS011;19323;56.072;9.698;2022-09-09T08:57:25;2.42;;;1.30;;
32641;SDS011;19323;56.072;9.698;2022-09-09T08:59:54;2.30;;;1.27;;
32641;SDS011;19323;56.072;9.698;2022-09-09T09:02:26;1.63;;;1.20;;
32641;SDS011;19323;56.072;9.698;2022-09-09T09:05:23;1.70;;;0.90;;
32641;SDS011;19323;56.072;9.698;2022-09-09T09:13:16;1.30;;;1.00;;
32641;SDS011;19323;56.072;9.698;2022-09-09T09:18:53;1.33;;;0.77;;
32641;SDS011;19323;56.072;9.698;2022-09-09T09:23:57;1.10;;;0.98;;
32641;SDS011;19323;56.072;9.698;2022-09-09T09:26:30;1.35;;;0.70;;
32641;SDS011;19323;56.072;9.698;2022-09-09T09:28:59;1.25;;;0.80;;
32641;SDS011;19323;56.072;9.698;2022-09-09T09:31:35;1.15;;;0.68;;
32641;SDS011;19323;56.072;9.698;2022-09-09T09:34:01;1.05;;;0.60;;
32641;SDS011;19323;56.072;9.698;2022-09-09T09:36:37;0.60;;;0.50;;
32641;SDS011;19323;56.072;9.698;2022-09-09T09:39:07;0.73;;;0.50;;
32641;SDS011;19323;56.072;9.698;2022-09-09T09:41:55;1.38;;;0.68;;
32641;SDS011;19323;56.072;9.698;2022-09-09T09:47:05;2.78;;;0.63;;
32641;SDS011;19323;56.072;9.698;2022-09-09T09:49:33;1.38;;;0.90;;
32641;SDS011;19323;56.072;9.698;2022-09-09T09:52:02;0.80;;;0.70;;
32641;SDS011;19323;56.072;9.698;2022-09-09T09:54:31;0.88;;;0.70;;
32641;SDS011;19323;56.072;9.698;2022-09-09T09:57:08;0.68;;;0.50;;
32641;SDS011;19323;56.072;9.698;2022-09-09T09:59:37;0.77;;;0.60;;
32641;SDS011;19323;56.072;9.698;2022-09-09T10:04:39;1.48;;;1.00;;
32641;SDS011;19323;56.072;9.698;2022-09-09T10:07:12;1.00;;;0.60;;
32641;SDS011;19323;56.072;9.698;2022-09-09T10:09:47;0.75;;;0.60;;
32641;SDS011;19323;56.072;9.698;2022-09-09T10:15:27;1.02;;;0.70;;
32641;SDS011;19323;56.072;9.698;2022-09-09T10:18:13;0.77;;;0.52;;
32641;SDS011;19323;56.072;9.698;2022-09-09T10:21:20;0.75;;;0.50;;
32641;SDS011;19323;56.072;9.698;2022-09-09T10:37:38;0.63;;;0.50;;
32641;SDS011;19323;56.072;9.698;2022-09-09T10:42:47;0.75;;;0.60;;
32641;SDS011;19323;56.072;9.698;2022-09-09T10:48:28;0.65;;;0.40;;
32641;SDS011;19323;56.072;9.698;2022-09-09T10:57:05;0.70;;;0.50;;
32641;SDS011;19323;56.072;9.698;2022-09-09T10:59:47;0.50;;;0.50;;
32641;SDS011;19323;56.072;9.698;2022-09-09T11:02:28;0.75;;;0.63;;
32641;SDS011;19323;56.072;9.698;2022-09-09T11:04:58;0.65;;;0.40;;
32641;SDS011;19323;56.072;9.698;2022-09-09T11:07:34;0.60;;;0.57;;
32641;SDS011;19323;56.072;9.698;2022-09-09T11:10:07;0.60;;;0.40;;
32641;SDS011;19323;56.072;9.698;2022-09-09T11:12:44;0.77;;;0.50;;
32641;SDS011;19323;56.072;9.698;2022-09-09T11:15:22;0.70;;;0.70;;
32641;SDS011;19323;56.072;9.698;2022-09-09T11:17:58;0.70;;;0.50;;
32641;SDS011;19323;56.072;9.698;2022-09-09T11:20:27;1.42;;;0.40;;
32641;SDS011;19323;56.072;9.698;2022-09-09T11:22:56;0.65;;;0.40;;
32641;SDS011;19323;56.072;9.698;2022-09-09T11:25:32;0.77;;;0.57;;
32641;SDS011;19323;56.072;9.698;2022-09-09T11:36:56;1.30;;;0.52;;
32641;SDS011;19323;56.072;9.698;2022-09-09T11:40:07;0.40;;;0.40;;
32641;SDS011;19323;56.072;9.698;2022-09-09T11:42:46;0.20;;;0.20;;
32641;SDS011;19323;56.072;9.698;2022-09-09T11:45:23;0.80;;;0.73;;
32641;SDS011;19323;56.072;9.698;2022-09-09T11:47:55;0.32;;;0.32;;
32641;SDS011;19323;56.072;9.698;2022-09-09T11:52:50;0.75;;;0.52;;
32641;SDS011;19323;56.072;9.698;2022-09-09T11:57:59;1.35;;;0.52;;
32641;SDS011;19323;56.072;9.698;2022-09-09T12:00:27;1.40;;;0.90;;
32641;SDS011;19323;56.072;9.698;2022-09-09T12:02:59;0.90;;;0.40;;
32641;SDS011;19323;56.072;9.698;2022-09-09T12:08:26;0.43;;;0.40;;
32641;SDS011;19323;56.072;9.698;2022-09-09T12:10:55;0.50;;;0.40;;
32641;SDS011;19323;56.072;9.698;2022-09-09T12:13:25;1.27;;;0.73;;
32641;SDS011;19323;56.072;9.698;2022-09-09T12:15:54;0.80;;;0.40;;
32641;SDS011;19323;56.072;9.698;2022-09-09T12:18:22;0.90;;;0.63;;
32641;SDS011;19323;56.072;9.698;2022-09-09T12:26:07;1.73;;;0.55;;
32641;SDS011;19323;56.072;9.698;2022-09-09T12:28:45;0.77;;;0.57;;
32641;SDS011;19323;56.072;9.698;2022-09-09T12:36:38;0.55;;;0.50;;
32641;SDS011;19323;56.072;9.698;2022-09-09T12:39:15;1.30;;;0.57;;
32641;SDS011;19323;56.072;9.698;2022-09-09T12:41:52;0.50;;;0.50;;
32641;SDS011;19323;56.072;9.698;2022-09-09T12:44:23;1.63;;;0.50;;
32641;SDS011;19323;56.072;9.698;2022-09-09T12:46:51;4.85;;;0.98;;
32641;SDS011;19323;56.072;9.698;2022-09-09T12:49:24;0.77;;;0.50;;
32641;SDS011;19323;56.072;9.698;2022-09-09T12:51:54;0.45;;;0.32;;
32641;SDS011;19323;56.072;9.698;2022-09-09T12:54:23;0.65;;;0.50;;
32641;SDS011;19323;56.072;9.698;2022-09-09T12:56:49;0.80;;;0.60;;
32641;SDS011;19323;56.072;9.698;2022-09-09T12:59:23;0.50;;;0.47;;
32641;SDS011;19323;56.072;9.698;2022-09-09T13:01:55;0.55;;;0.47;;
32641;SDS011;19323;56.072;9.698;2022-09-09T13:04:25;1.20;;;0.68;;
32641;SDS011;19323;56.072;9.698;2022-09-09T13:06:52;2.78;;;0.43;;
32641;SDS011;19323;56.072;9.698;2022-09-09T13:09:19;3.08;;;1.05;;
32641;SDS011;19323;56.072;9.698;2022-09-09T13:11:49;7.97;;;1.10;;
32641;SDS011;19323;56.072;9.698;2022-09-09T13:14:28;4.35;;;0.70;;
32641;SDS011;19323;56.072;9.698;2022-09-09T13:16:59;1.10;;;0.45;;
32641;SDS011;19323;56.072;9.698;2022-09-09T13:19:28;0.50;;;0.50;;
32641;SDS011;19323;56.072;9.698;2022-09-09T13:21:59;0.65;;;0.50;;
32641;SDS011;19323;56.072;9.698;2022-09-09T13:24:31;2.97;;;0.90;;
32641;SDS011;19323;56.072;9.698;2022-09-09T13:27:00;1.10;;;0.70;;
32641;SDS011;19323;56.072;9.698;2022-09-09T13:29:29;1.90;;;0.70;;
32641;SDS011;19323;56.072;9.698;2022-09-09T13:32:07;2.33;;;0.68;;
32641;SDS011;19323;56.072;9.698;2022-09-09T13:34:50;1.17;;;0.45;;
32641;SDS011;19323;56.072;9.698;2022-09-09T13:37:34;1.00;;;0.85;;
32641;SDS011;19323;56.072;9.698;2022-09-09T13:40:12;0.98;;;0.60;;
32641;SDS011;19323;56.072;9.698;2022-09-09T13:42:44;0.70;;;0.60;;
32641;SDS011;19323;56.072;9.698;2022-09-09T13:45:17;1.23;;;0.47;;
32641;SDS011;19323;56.072;9.698;2022-09-09T13:47:46;1.75;;;0.70;;
32641;SDS011;19323;56.072;9.698;2022-09-09T13:52:50;1.13;;;0.50;;
32641;SDS011;19323;56.072;9.698;2022-09-09T13:55:19;1.10;;;0.75;;
32641;SDS011;19323;56.072;9.698;2022-09-09T13:57:59;1.52;;;0.38;;
32641;SDS011;19323;56.072;9.698;2022-09-09T14:00:28;1.25;;;0.70;;
32641;SDS011;19323;56.072;9.698;2022-09-09T14:02:56;3.13;;;0.80;;
32641;SDS011;19323;56.072;9.698;2022-09-09T14:05:23;1.15;;;0.65;;
32641;SDS011;19323;56.072;9.698;2022-09-09T14:07:49;13.65;;;1.35;;
32641;SDS011;19323;56.072;9.698;2022-09-09T14:10:18;1.20;;;0.60;;
32641;SDS011;19323;56.072;9.698;2022-09-09T14:12:45;5.05;;;0.88;;
32641;SDS011;19323;56.072;9.698;2022-09-09T14:15:12;3.05;;;0.90;;
32641;SDS011;19323;56.072;9.698;2022-09-09T14:17:40;2.85;;;0.70;;
32641;SDS011;19323;56.072;9.698;2022-09-09T14:20:07;7.78;;;1.27;;
32641;SDS011;19323;56.072;9.698;2022-09-09T14:22:34;1.25;;;0.98;;
32641;SDS011;19323;56.072;9.698;2022-09-09T14:25:02;3.58;;;0.70;;
32641;SDS011;19323;56.072;9.698;2022-09-09T14:27:29;1.30;;;0.68;;
32641;SDS011;19323;56.072;9.698;2022-09-09T14:29:56;1.42;;;0.65;;
32641;SDS011;19323;56.072;9.698;2022-09-09T14:32:23;1.08;;;0.85;;
32641;SDS011;19323;56.072;9.698;2022-09-09T14:34:50;1.88;;;0.77;;
32641;SDS011;19323;56.072;9.698;2022-09-09T14:37:16;2.53;;;0.93;;
32641;SDS011;19323;56.072;9.698;2022-09-09T14:39:43;5.22;;;0.82;;
32641;SDS011;19323;56.072;9.698;2022-09-09T14:42:10;4.20;;;0.68;;
32641;SDS011;19323;56.072;9.698;2022-09-09T14:44:37;4.80;;;1.10;;
32641;SDS011;19323;56.072;9.698;2022-09-09T14:47:07;6.15;;;1.40;;
32641;SDS011;19323;56.072;9.698;2022-09-09T14:49:34;5.68;;;1.00;;
32641;SDS011;19323;56.072;9.698;2022-09-09T14:52:01;2.08;;;1.00;;
32641;SDS011;19323;56.072;9.698;2022-09-09T14:54:29;3.20;;;0.73;;
32641;SDS011;19323;56.072;9.698;2022-09-09T14:56:56;1.63;;;0.65;;
32641;SDS011;19323;56.072;9.698;2022-09-09T14:59:22;2.90;;;0.80;;
32641;SDS011;19323;56.072;9.698;2022-09-09T15:01:49;2.03;;;1.35;;
32641;SDS011;19323;56.072;9.698;2022-09-09T15:04:15;1.17;;;0.80;;
32641;SDS011;19323;56.072;9.698;2022-09-09T15:06:42;3.53;;;1.00;;
32641;SDS011;19323;56.072;9.698;2022-09-09T15:09:13;1.45;;;1.05;;
32641;SDS011;19323;56.072;9.698;2022-09-09T15:11:40;1.40;;;0.90;;
32641;SDS011;19323;56.072;9.698;2022-09-09T15:14:07;2.40;;;1.10;;
32641;SDS011;19323;56.072;9.698;2022-09-09T15:16:35;2.22;;;1.27;;
32641;SDS011;19323;56.072;9.698;2022-09-09T15:19:02;2.28;;;1.20;;
32641;SDS011;19323;56.072;9.698;2022-09-09T15:21:33;2.40;;;1.45;;
32641;SDS011;19323;56.072;9.698;2022-09-09T15:24:01;2.30;;;1.27;;
32641;SDS011;19323;56.072;9.698;2022-09-09T15:26:28;1.77;;;1.38;;
32641;SDS011;19323;56.072;9.698;2022-09-09T15:28:56;3.05;;;1.25;;
32641;SDS011;19323;56.072;9.698;2022-09-09T15:31:28;2.00;;;1.63;;
32641;SDS011;19323;56.072;9.698;2022-09-09T15:33:57;3.88;;;1.92;;
32641;SDS011;19323;56.072;9.698;2022-09-09T15:36:31;2.80;;;1.90;;
32641;SDS011;19323;56.072;9.698;2022-09-09T15:38:58;1.63;;;1.52;;
32641;SDS011;19323;56.072;9.698;2022-09-09T15:41:26;4.55;;;1.70;;
32641;SDS011;19323;56.072;9.698;2022-09-09T15:43:54;4.57;;;2.55;;
32641;SDS011;19323;56.072;9.698;2022-09-09T15:48:58;5.40;;;3.85;;
32641;SDS011;19323;56.072;9.698;2022-09-09T15:51:29;3.03;;;2.83;;
32641;SDS011;19323;56.072;9.698;2022-09-09T15:54:08;3.55;;;3.25;;
32641;SDS011;19323;56.072;9.698;2022-09-09T15:56:36;3.25;;;3.00;;
32641;SDS011;19323;56.072;9.698;2022-09-09T15:59:02;3.30;;;2.88;;
32641;SDS011;19323;56.072;9.698;2022-09-09T16:01:30;4.20;;;3.20;;
32641;SDS011;19323;56.072;9.698;2022-09-09T16:03:58;4.18;;;3.40;;
32641;SDS011;19323;56.072;9.698;2022-09-09T16:06:26;3.20;;;3.00;;
32641;SDS011;19323;56.072;9.698;2022-09-09T16:08:55;3.35;;;3.05;;
32641;SDS011;19323;56.072;9.698;2022-09-09T16:11:23;6.32;;;3.33;;
32641;SDS011;19323;56.072;9.698;2022-09-09T16:13:53;4.13;;;3.15;;
32641;SDS011;19323;56.072;9.698;2022-09-09T16:16:21;3.65;;;3.35;;
32641;SDS011;19323;56.072;9.698;2022-09-09T16:18:51;3.40;;;3.10;;
32641;SDS011;19323;56.072;9.698;2022-09-09T16:21:26;3.95;;;3.20;;
32641;SDS011;19323;56.072;9.698;2022-09-09T16:23:57;3.33;;;3.03;;
32641;SDS011;19323;56.072;9.698;2022-09-09T16:26:25;3.63;;;3.33;;
32641;SDS011;19323;56.072;9.698;2022-09-09T16:28:53;3.78;;;3.03;;
32641;SDS011;19323;56.072;9.698;2022-09-09T16:31:24;4.93;;;2.88;;
32641;SDS011;19323;56.072;9.698;2022-09-09T16:33:52;3.83;;;3.53;;
32641;SDS011;19323;56.072;9.698;2022-09-09T16:36:23;7.10;;;5.30;;
32641;SDS011;19323;56.072;9.698;2022-09-09T16:38:54;14.32;;;8.10;;
32641;SDS011;19323;56.072;9.698;2022-09-09T16:41:23;37.28;;;13.43;;
32641;SDS011;19323;56.072;9.698;2022-09-09T16:44:01;51.35;;;16.75;;
32641;SDS011;19323;56.072;9.698;2022-09-09T16:46:32;69.88;;;22.02;;
32641;SDS011;19323;56.072;9.698;2022-09-09T16:49:07;94.40;;;33.13;;
32641;SDS011;19323;56.072;9.698;2022-09-09T16:51:43;124.93;;;42.25;;
32641;SDS011;19323;56.072;9.698;2022-09-09T16:54:11;162.93;;;51.35;;
32641;SDS011;19323;56.072;9.698;2022-09-09T16:56:40;141.32;;;48.60;;
32641;SDS011;19323;56.072;9.698;2022-09-09T16:59:11;139.98;;;49.42;;
32641;SDS011;19323;56.072;9.698;2022-09-09T17:01:43;134.32;;;49.65;;
32641;SDS011;19323;56.072;9.698;2022-09-09T17:04:12;163.63;;;52.55;;
32641;SDS011;19323;56.072;9.698;2022-09-09T17:06:45;173.68;;;55.30;;
32641;SDS011;19323;56.072;9.698;2022-09-09T17:09:18;173.93;;;56.67;;
32641;SDS011;19323;56.072;9.698;2022-09-09T17:11:46;155.90;;;54.58;;
32641;SDS011;19323;56.072;9.698;2022-09-09T17:14:14;161.18;;;52.70;;
32641;SDS011;19323;56.072;9.698;2022-09-09T17:16:43;147.65;;;48.00;;